sensor_id;sensor_type;location;lat;lon;timestamp;P1;durP1;ratioP1;P2;durP2;ratioP2
75311;SDS011;63906;55.686;37.532;2023-09-08T00:02:43;1.83;;;0.90;;
75311;SDS011;63906;55.686;37.532;2023-09-08T00:07:43;1.30;;;0.80;;
75311;SDS011;63906;55.686;37.532;2023-09-08T00:12:44;1.63;;;0.80;;
75311;SDS011;63906;55.686;37.532;2023-09-08T00:17:44;1.65;;;0.82;;
75311;SDS011;63906;55.686;37.532;2023-09-08T00:27:47;3.03;;;1.77;;
75311;SDS011;63906;55.686;37.532;2023-09-08T00:32:48;2.03;;;0.90;;
75311;SDS011;63906;55.686;37.532;2023-09-08T00:37:48;1.50;;;0.90;;
75311;SDS011;63906;55.686;37.532;2023-09-08T00:42:49;1.75;;;0.80;;
75311;SDS011;63906;55.686;37.532;2023-09-08T00:47:49;3.03;;;1.15;;
75311;SDS011;63906;55.686;37.532;2023-09-08T00:52:50;1.23;;;1.00;;
75311;SDS011;63906;55.686;37.532;2023-09-08T00:57:51;2.10;;;0.90;;
75311;SDS011;63906;55.686;37.532;2023-09-08T01:02:51;1.80;;;0.95;;
75311;SDS011;63906;55.686;37.532;2023-09-08T01:07:52;1.58;;;1.08;;
75311;SDS011;63906;55.686;37.532;2023-09-08T01:12:53;1.35;;;0.88;;
75311;SDS011;63906;55.686;37.532;2023-09-08T01:17:54;1.83;;;0.80;;
75311;SDS011;63906;55.686;37.532;2023-09-08T01:23:11;2.03;;;0.80;;
75311;SDS011;63906;55.686;37.532;2023-09-08T01:28:12;1.50;;;0.95;;
75311;SDS011;63906;55.686;37.532;2023-09-08T01:33:15;2.47;;;0.85;;
75311;SDS011;63906;55.686;37.532;2023-09-08T01:38:15;2.15;;;0.80;;
75311;SDS011;63906;55.686;37.532;2023-09-08T01:43:16;1.25;;;0.70;;
75311;SDS011;63906;55.686;37.532;2023-09-08T01:48:17;2.63;;;1.15;;
75311;SDS011;63906;55.686;37.532;2023-09-08T01:53:17;1.27;;;0.63;;
75311;SDS011;63906;55.686;37.532;2023-09-08T01:58:17;2.73;;;1.00;;
75311;SDS011;63906;55.686;37.532;2023-09-08T02:03:18;1.17;;;0.67;;
75311;SDS011;63906;55.686;37.532;2023-09-08T02:08:18;1.90;;;1.00;;
75311;SDS011;63906;55.686;37.532;2023-09-08T02:13:19;1.52;;;1.00;;
75311;SDS011;63906;55.686;37.532;2023-09-08T02:18:19;1.60;;;0.88;;
75311;SDS011;63906;55.686;37.532;2023-09-08T02:23:20;2.60;;;0.80;;
75311;SDS011;63906;55.686;37.532;2023-09-08T02:28:20;1.53;;;1.00;;
75311;SDS011;63906;55.686;37.532;2023-09-08T02:33:21;2.08;;;1.10;;
75311;SDS011;63906;55.686;37.532;2023-09-08T02:38:21;1.27;;;0.83;;
75311;SDS011;63906;55.686;37.532;2023-09-08T02:43:22;2.58;;;0.80;;
75311;SDS011;63906;55.686;37.532;2023-09-08T02:48:22;1.15;;;0.65;;
75311;SDS011;63906;55.686;37.532;2023-09-08T02:53:23;1.48;;;0.95;;
75311;SDS011;63906;55.686;37.532;2023-09-08T02:58:24;1.30;;;0.88;;
75311;SDS011;63906;55.686;37.532;2023-09-08T03:03:25;1.80;;;1.00;;
75311;SDS011;63906;55.686;37.532;2023-09-08T03:08:26;1.50;;;0.93;;
75311;SDS011;63906;55.686;37.532;2023-09-08T03:13:26;1.65;;;0.80;;
75311;SDS011;63906;55.686;37.532;2023-09-08T03:18:28;1.48;;;0.70;;
75311;SDS011;63906;55.686;37.532;2023-09-08T03:23:29;1.03;;;0.70;;
75311;SDS011;63906;55.686;37.532;2023-09-08T03:28:30;2.17;;;1.02;;
75311;SDS011;63906;55.686;37.532;2023-09-08T03:33:31;1.08;;;0.98;;
75311;SDS011;63906;55.686;37.532;2023-09-08T03:38:31;1.70;;;0.77;;
75311;SDS011;63906;55.686;37.532;2023-09-08T03:43:32;1.20;;;0.82;;
75311;SDS011;63906;55.686;37.532;2023-09-08T03:48:32;1.42;;;0.70;;
75311;SDS011;63906;55.686;37.532;2023-09-08T03:53:33;1.17;;;0.80;;
75311;SDS011;63906;55.686;37.532;2023-09-08T03:58:33;2.45;;;0.95;;
75311;SDS011;63906;55.686;37.532;2023-09-08T04:03:34;1.13;;;0.73;;
75311;SDS011;63906;55.686;37.532;2023-09-08T04:08:34;1.90;;;0.97;;
75311;SDS011;63906;55.686;37.532;2023-09-08T04:13:35;1.45;;;0.93;;
75311;SDS011;63906;55.686;37.532;2023-09-08T04:18:35;2.57;;;0.90;;
75311;SDS011;63906;55.686;37.532;2023-09-08T04:23:36;1.10;;;0.80;;
75311;SDS011;63906;55.686;37.532;2023-09-08T04:28:36;0.90;;;0.60;;
75311;SDS011;63906;55.686;37.532;2023-09-08T04:33:38;1.17;;;0.90;;
75311;SDS011;63906;55.686;37.532;2023-09-08T04:38:39;1.48;;;0.77;;
75311;SDS011;63906;55.686;37.532;2023-09-08T04:43:41;3.80;;;0.98;;
75311;SDS011;63906;55.686;37.532;2023-09-08T04:48:42;1.87;;;0.77;;
75311;SDS011;63906;55.686;37.532;2023-09-08T04:53:42;1.92;;;0.85;;
75311;SDS011;63906;55.686;37.532;2023-09-08T04:58:43;1.93;;;0.80;;
75311;SDS011;63906;55.686;37.532;2023-09-08T05:03:43;3.22;;;0.95;;
75311;SDS011;63906;55.686;37.532;2023-09-08T05:08:44;1.45;;;0.70;;
75311;SDS011;63906;55.686;37.532;2023-09-08T05:13:45;1.58;;;0.60;;
75311;SDS011;63906;55.686;37.532;2023-09-08T05:18:47;1.35;;;0.85;;
75311;SDS011;63906;55.686;37.532;2023-09-08T05:23:48;1.57;;;0.70;;
75311;SDS011;63906;55.686;37.532;2023-09-08T05:28:48;1.20;;;0.67;;
75311;SDS011;63906;55.686;37.532;2023-09-08T05:33:49;2.30;;;0.70;;
75311;SDS011;63906;55.686;37.532;2023-09-08T05:38:49;1.83;;;0.63;;
75311;SDS011;63906;55.686;37.532;2023-09-08T05:43:50;2.40;;;0.70;;
75311;SDS011;63906;55.686;37.532;2023-09-08T05:48:50;1.40;;;0.70;;
75311;SDS011;63906;55.686;37.532;2023-09-08T05:53:51;1.05;;;0.65;;
75311;SDS011;63906;55.686;37.532;2023-09-08T05:58:51;0.63;;;0.50;;
75311;SDS011;63906;55.686;37.532;2023-09-08T06:03:52;1.67;;;0.65;;
75311;SDS011;63906;55.686;37.532;2023-09-08T06:08:54;1.10;;;0.75;;
75311;SDS011;63906;55.686;37.532;2023-09-08T06:13:55;2.20;;;0.60;;
75311;SDS011;63906;55.686;37.532;2023-09-08T06:18:59;0.95;;;0.50;;
75311;SDS011;63906;55.686;37.532;2023-09-08T06:24:00;0.85;;;0.40;;
75311;SDS011;63906;55.686;37.532;2023-09-08T06:29:01;2.07;;;0.60;;
75311;SDS011;63906;55.686;37.532;2023-09-08T06:34:01;1.37;;;0.70;;
75311;SDS011;63906;55.686;37.532;2023-09-08T06:39:02;2.70;;;0.80;;
75311;SDS011;63906;55.686;37.532;2023-09-08T06:44:04;1.38;;;0.70;;
75311;SDS011;63906;55.686;37.532;2023-09-08T06:49:05;1.65;;;0.60;;
75311;SDS011;63906;55.686;37.532;2023-09-08T06:54:06;2.83;;;0.67;;
75311;SDS011;63906;55.686;37.532;2023-09-08T06:59:06;2.72;;;0.77;;
75311;SDS011;63906;55.686;37.532;2023-09-08T07:04:07;2.20;;;0.80;;
75311;SDS011;63906;55.686;37.532;2023-09-08T07:09:10;1.63;;;0.55;;
75311;SDS011;63906;55.686;37.532;2023-09-08T07:14:11;2.65;;;0.60;;
75311;SDS011;63906;55.686;37.532;2023-09-08T07:19:11;3.17;;;0.60;;
75311;SDS011;63906;55.686;37.532;2023-09-08T07:24:12;1.20;;;0.77;;
75311;SDS011;63906;55.686;37.532;2023-09-08T07:29:12;2.00;;;0.65;;
75311;SDS011;63906;55.686;37.532;2023-09-08T07:34:13;1.67;;;0.52;;
75311;SDS011;63906;55.686;37.532;2023-09-08T07:39:13;1.63;;;0.83;;
75311;SDS011;63906;55.686;37.532;2023-09-08T07:44:14;1.53;;;0.50;;
75311;SDS011;63906;55.686;37.532;2023-09-08T07:49:14;3.28;;;0.70;;
75311;SDS011;63906;55.686;37.532;2023-09-08T07:54:15;2.38;;;0.68;;
75311;SDS011;63906;55.686;37.532;2023-09-08T07:59:15;1.05;;;0.52;;
75311;SDS011;63906;55.686;37.532;2023-09-08T08:04:16;1.53;;;0.50;;
75311;SDS011;63906;55.686;37.532;2023-09-08T08:09:16;2.43;;;0.63;;
75311;SDS011;63906;55.686;37.532;2023-09-08T08:14:17;3.50;;;0.70;;
75311;SDS011;63906;55.686;37.532;2023-09-08T08:19:17;1.75;;;0.68;;
75311;SDS011;63906;55.686;37.532;2023-09-08T08:24:18;1.10;;;0.30;;
75311;SDS011;63906;55.686;37.532;2023-09-08T08:29:19;1.48;;;0.43;;
75311;SDS011;63906;55.686;37.532;2023-09-08T08:34:20;1.17;;;0.70;;
75311;SDS011;63906;55.686;37.532;2023-09-08T08:39:20;1.75;;;0.60;;
75311;SDS011;63906;55.686;37.532;2023-09-08T08:44:21;0.97;;;0.43;;
75311;SDS011;63906;55.686;37.532;2023-09-08T08:49:23;0.82;;;0.50;;
75311;SDS011;63906;55.686;37.532;2023-09-08T08:54:24;3.58;;;0.50;;
75311;SDS011;63906;55.686;37.532;2023-09-08T08:59:25;3.72;;;0.45;;
75311;SDS011;63906;55.686;37.532;2023-09-08T09:04:27;0.63;;;0.45;;
75311;SDS011;63906;55.686;37.532;2023-09-08T09:09:28;0.77;;;0.60;;
75311;SDS011;63906;55.686;37.532;2023-09-08T09:14:32;1.33;;;0.30;;
75311;SDS011;63906;55.686;37.532;2023-09-08T09:19:33;1.05;;;0.50;;
75311;SDS011;63906;55.686;37.532;2023-09-08T09:24:36;1.02;;;0.55;;
75311;SDS011;63906;55.686;37.532;2023-09-08T09:29:44;3.67;;;0.85;;
75311;SDS011;63906;55.686;37.532;2023-09-08T09:34:50;2.35;;;0.50;;
75311;SDS011;63906;55.686;37.532;2023-09-08T09:39:54;1.10;;;0.57;;
75311;SDS011;63906;55.686;37.532;2023-09-08T09:44:55;0.93;;;0.52;;
75311;SDS011;63906;55.686;37.532;2023-09-08T09:49:55;2.53;;;0.63;;
75311;SDS011;63906;55.686;37.532;2023-09-08T09:54:58;1.55;;;0.60;;
75311;SDS011;63906;55.686;37.532;2023-09-08T09:59:59;2.22;;;1.17;;
75311;SDS011;63906;55.686;37.532;2023-09-08T10:05:11;2.13;;;0.80;;
75311;SDS011;63906;55.686;37.532;2023-09-08T10:10:13;0.90;;;0.60;;
75311;SDS011;63906;55.686;37.532;2023-09-08T10:15:13;0.98;;;0.60;;
75311;SDS011;63906;55.686;37.532;2023-09-08T10:20:18;1.63;;;0.65;;
75311;SDS011;63906;55.686;37.532;2023-09-08T10:25:21;2.38;;;0.60;;
75311;SDS011;63906;55.686;37.532;2023-09-08T10:30:24;1.58;;;0.68;;
75311;SDS011;63906;55.686;37.532;2023-09-08T10:35:25;1.38;;;0.77;;
75311;SDS011;63906;55.686;37.532;2023-09-08T10:40:26;2.67;;;0.90;;
75311;SDS011;63906;55.686;37.532;2023-09-08T10:45:29;1.35;;;0.70;;
75311;SDS011;63906;55.686;37.532;2023-09-08T10:50:34;1.60;;;0.60;;
75311;SDS011;63906;55.686;37.532;2023-09-08T10:55:42;1.98;;;0.93;;
75311;SDS011;63906;55.686;37.532;2023-09-08T11:00:51;2.45;;;1.05;;
75311;SDS011;63906;55.686;37.532;2023-09-08T11:05:54;1.50;;;1.00;;
75311;SDS011;63906;55.686;37.532;2023-09-08T11:10:56;1.38;;;0.70;;
75311;SDS011;63906;55.686;37.532;2023-09-08T11:15:57;3.08;;;0.68;;
75311;SDS011;63906;55.686;37.532;2023-09-08T11:20:59;4.35;;;1.73;;
75311;SDS011;63906;55.686;37.532;2023-09-08T11:26:01;1.13;;;0.70;;
75311;SDS011;63906;55.686;37.532;2023-09-08T11:31:02;1.23;;;0.83;;
75311;SDS011;63906;55.686;37.532;2023-09-08T11:36:09;1.55;;;0.70;;
75311;SDS011;63906;55.686;37.532;2023-09-08T11:41:16;1.25;;;0.52;;
75311;SDS011;63906;55.686;37.532;2023-09-08T11:46:17;0.82;;;0.68;;
75311;SDS011;63906;55.686;37.532;2023-09-08T11:51:22;2.17;;;0.98;;
75311;SDS011;63906;55.686;37.532;2023-09-08T11:56:23;1.20;;;0.70;;
75311;SDS011;63906;55.686;37.532;2023-09-08T12:01:24;1.65;;;0.80;;
75311;SDS011;63906;55.686;37.532;2023-09-08T12:06:25;2.55;;;1.15;;
75311;SDS011;63906;55.686;37.532;2023-09-08T12:16:32;1.45;;;0.77;;
75311;SDS011;63906;55.686;37.532;2023-09-08T12:21:53;1.85;;;1.00;;
75311;SDS011;63906;55.686;37.532;2023-09-08T12:26:56;2.28;;;0.60;;
75311;SDS011;63906;55.686;37.532;2023-09-08T12:31:56;2.53;;;1.05;;
75311;SDS011;63906;55.686;37.532;2023-09-08T12:36:57;1.90;;;0.70;;
75311;SDS011;63906;55.686;37.532;2023-09-08T12:41:57;1.40;;;0.70;;
75311;SDS011;63906;55.686;37.532;2023-09-08T12:46:58;1.40;;;0.70;;
75311;SDS011;63906;55.686;37.532;2023-09-08T12:51:59;2.22;;;0.75;;
75311;SDS011;63906;55.686;37.532;2023-09-08T12:56:59;1.15;;;0.70;;
75311;SDS011;63906;55.686;37.532;2023-09-08T13:01:59;1.30;;;0.60;;
75311;SDS011;63906;55.686;37.532;2023-09-08T13:07:00;1.00;;;0.60;;
75311;SDS011;63906;55.686;37.532;2023-09-08T13:12:01;1.13;;;0.50;;
75311;SDS011;63906;55.686;37.532;2023-09-08T13:17:02;0.70;;;0.40;;
75311;SDS011;63906;55.686;37.532;2023-09-08T13:22:06;1.95;;;0.52;;
75311;SDS011;63906;55.686;37.532;2023-09-08T13:27:07;0.77;;;0.32;;
75311;SDS011;63906;55.686;37.532;2023-09-08T13:32:07;0.80;;;0.52;;
75311;SDS011;63906;55.686;37.532;2023-09-08T13:37:08;0.90;;;0.43;;
75311;SDS011;63906;55.686;37.532;2023-09-08T13:42:08;1.40;;;0.43;;
75311;SDS011;63906;55.686;37.532;2023-09-08T13:47:09;1.25;;;0.32;;
75311;SDS011;63906;55.686;37.532;2023-09-08T13:52:10;0.77;;;0.50;;
75311;SDS011;63906;55.686;37.532;2023-09-08T13:57:10;1.15;;;0.25;;
75311;SDS011;63906;55.686;37.532;2023-09-08T14:02:11;0.60;;;0.32;;
75311;SDS011;63906;55.686;37.532;2023-09-08T14:07:11;1.10;;;0.55;;
75311;SDS011;63906;55.686;37.532;2023-09-08T14:12:12;2.08;;;0.60;;
75311;SDS011;63906;55.686;37.532;2023-09-08T14:17:12;0.87;;;0.30;;
75311;SDS011;63906;55.686;37.532;2023-09-08T14:22:13;1.23;;;0.47;;
75311;SDS011;63906;55.686;37.532;2023-09-08T14:27:14;0.70;;;0.30;;
75311;SDS011;63906;55.686;37.532;2023-09-08T14:32:14;0.97;;;0.50;;
75311;SDS011;63906;55.686;37.532;2023-09-08T14:37:15;1.10;;;0.50;;
75311;SDS011;63906;55.686;37.532;2023-09-08T14:42:15;1.13;;;0.57;;
75311;SDS011;63906;55.686;37.532;2023-09-08T14:47:16;0.47;;;0.30;;
75311;SDS011;63906;55.686;37.532;2023-09-08T14:52:16;0.90;;;0.60;;
75311;SDS011;63906;55.686;37.532;2023-09-08T14:57:20;1.13;;;0.60;;
75311;SDS011;63906;55.686;37.532;2023-09-08T15:02:21;1.00;;;0.60;;
75311;SDS011;63906;55.686;37.532;2023-09-08T15:07:22;0.93;;;0.63;;
75311;SDS011;63906;55.686;37.532;2023-09-08T15:12:23;1.00;;;0.77;;
75311;SDS011;63906;55.686;37.532;2023-09-08T15:17:23;1.48;;;1.10;;
75311;SDS011;63906;55.686;37.532;2023-09-08T15:22:24;2.58;;;1.27;;
75311;SDS011;63906;55.686;37.532;2023-09-08T15:27:24;1.67;;;1.30;;
75311;SDS011;63906;55.686;37.532;2023-09-08T15:32:25;1.30;;;1.10;;
75311;SDS011;63906;55.686;37.532;2023-09-08T15:37:25;2.35;;;1.00;;
75311;SDS011;63906;55.686;37.532;2023-09-08T15:42:26;2.00;;;1.40;;
75311;SDS011;63906;55.686;37.532;2023-09-08T15:47:26;1.17;;;1.08;;
75311;SDS011;63906;55.686;37.532;2023-09-08T15:52:27;1.83;;;1.02;;
75311;SDS011;63906;55.686;37.532;2023-09-08T15:57:27;1.97;;;1.10;;
75311;SDS011;63906;55.686;37.532;2023-09-08T16:02:28;3.15;;;1.45;;
75311;SDS011;63906;55.686;37.532;2023-09-08T16:07:28;2.40;;;1.40;;
75311;SDS011;63906;55.686;37.532;2023-09-08T16:12:29;3.22;;;1.40;;
75311;SDS011;63906;55.686;37.532;2023-09-08T16:17:31;1.90;;;1.17;;
75311;SDS011;63906;55.686;37.532;2023-09-08T16:22:32;1.73;;;1.60;;
75311;SDS011;63906;55.686;37.532;2023-09-08T16:27:32;1.95;;;1.70;;
75311;SDS011;63906;55.686;37.532;2023-09-08T16:32:33;2.22;;;1.85;;
75311;SDS011;63906;55.686;37.532;2023-09-08T16:37:33;2.20;;;1.80;;
75311;SDS011;63906;55.686;37.532;2023-09-08T16:42:34;2.08;;;1.60;;
75311;SDS011;63906;55.686;37.532;2023-09-08T16:47:36;2.03;;;1.60;;
75311;SDS011;63906;55.686;37.532;2023-09-08T16:52:37;1.90;;;1.70;;
75311;SDS011;63906;55.686;37.532;2023-09-08T16:57:38;1.75;;;1.50;;
75311;SDS011;63906;55.686;37.532;2023-09-08T17:02:39;2.33;;;1.63;;
75311;SDS011;63906;55.686;37.532;2023-09-08T17:07:39;2.25;;;1.90;;
75311;SDS011;63906;55.686;37.532;2023-09-08T17:12:40;2.75;;;1.70;;
75311;SDS011;63906;55.686;37.532;2023-09-08T17:17:40;2.72;;;1.63;;
75311;SDS011;63906;55.686;37.532;2023-09-08T17:22:41;3.27;;;1.80;;
75311;SDS011;63906;55.686;37.532;2023-09-08T17:27:42;2.87;;;1.93;;
75311;SDS011;63906;55.686;37.532;2023-09-08T17:32:43;3.58;;;2.20;;
75311;SDS011;63906;55.686;37.532;2023-09-08T17:37:43;3.17;;;1.88;;
75311;SDS011;63906;55.686;37.532;2023-09-08T17:42:44;2.33;;;1.50;;
75311;SDS011;63906;55.686;37.532;2023-09-08T17:47:44;1.80;;;1.40;;
75311;SDS011;63906;55.686;37.532;2023-09-08T17:52:45;2.22;;;1.60;;
75311;SDS011;63906;55.686;37.532;2023-09-08T17:57:45;2.83;;;1.50;;
75311;SDS011;63906;55.686;37.532;2023-09-08T18:02:46;2.03;;;1.50;;
75311;SDS011;63906;55.686;37.532;2023-09-08T18:07:46;2.10;;;1.10;;
75311;SDS011;63906;55.686;37.532;2023-09-08T18:12:47;1.90;;;1.45;;
75311;SDS011;63906;55.686;37.532;2023-09-08T18:17:47;1.40;;;1.00;;
75311;SDS011;63906;55.686;37.532;2023-09-08T18:22:48;1.70;;;1.20;;
75311;SDS011;63906;55.686;37.532;2023-09-08T18:27:48;2.05;;;1.00;;
75311;SDS011;63906;55.686;37.532;2023-09-08T18:32:49;3.53;;;1.38;;
75311;SDS011;63906;55.686;37.532;2023-09-08T18:37:49;2.53;;;1.10;;
75311;SDS011;63906;55.686;37.532;2023-09-08T18:42:50;1.65;;;1.10;;
75311;SDS011;63906;55.686;37.532;2023-09-08T18:47:50;1.57;;;0.90;;
75311;SDS011;63906;55.686;37.532;2023-09-08T18:52:51;1.83;;;1.10;;
75311;SDS011;63906;55.686;37.532;2023-09-08T18:57:51;1.73;;;1.20;;
75311;SDS011;63906;55.686;37.532;2023-09-08T19:02:52;1.80;;;1.10;;
75311;SDS011;63906;55.686;37.532;2023-09-08T19:07:52;0.90;;;0.53;;
75311;SDS011;63906;55.686;37.532;2023-09-08T19:12:53;0.90;;;0.60;;
75311;SDS011;63906;55.686;37.532;2023-09-08T19:17:56;1.25;;;0.63;;
75311;SDS011;63906;55.686;37.532;2023-09-08T19:22:57;1.00;;;0.82;;
75311;SDS011;63906;55.686;37.532;2023-09-08T19:27:57;1.10;;;0.77;;
75311;SDS011;63906;55.686;37.532;2023-09-08T19:32:58;1.52;;;0.73;;
75311;SDS011;63906;55.686;37.532;2023-09-08T19:37:58;1.73;;;0.70;;
75311;SDS011;63906;55.686;37.532;2023-09-08T19:42:59;2.00;;;0.80;;
75311;SDS011;63906;55.686;37.532;2023-09-08T19:47:59;1.50;;;0.60;;
75311;SDS011;63906;55.686;37.532;2023-09-08T19:53:00;1.73;;;0.70;;
75311;SDS011;63906;55.686;37.532;2023-09-08T19:58:00;0.67;;;0.50;;
75311;SDS011;63906;55.686;37.532;2023-09-08T20:03:01;0.50;;;0.40;;
75311;SDS011;63906;55.686;37.532;2023-09-08T20:08:01;2.10;;;0.77;;
75311;SDS011;63906;55.686;37.532;2023-09-08T20:13:02;1.00;;;0.80;;
75311;SDS011;63906;55.686;37.532;2023-09-08T20:18:02;0.65;;;0.50;;
75311;SDS011;63906;55.686;37.532;2023-09-08T20:23:03;1.92;;;0.45;;
75311;SDS011;63906;55.686;37.532;2023-09-08T20:28:04;0.60;;;0.50;;
75311;SDS011;63906;55.686;37.532;2023-09-08T20:33:06;1.88;;;0.60;;
75311;SDS011;63906;55.686;37.532;2023-09-08T20:38:06;0.88;;;0.40;;
75311;SDS011;63906;55.686;37.532;2023-09-08T20:43:08;0.47;;;0.43;;
75311;SDS011;63906;55.686;37.532;2023-09-08T20:48:08;0.70;;;0.40;;
75311;SDS011;63906;55.686;37.532;2023-09-08T20:53:09;1.55;;;0.75;;
75311;SDS011;63906;55.686;37.532;2023-09-08T20:58:09;0.80;;;0.60;;
75311;SDS011;63906;55.686;37.532;2023-09-08T21:03:10;0.90;;;0.70;;
75311;SDS011;63906;55.686;37.532;2023-09-08T21:08:10;1.48;;;0.63;;
75311;SDS011;63906;55.686;37.532;2023-09-08T21:13:11;1.30;;;0.60;;
75311;SDS011;63906;55.686;37.532;2023-09-08T21:18:11;0.97;;;0.57;;
75311;SDS011;63906;55.686;37.532;2023-09-08T21:23:12;0.90;;;0.50;;
75311;SDS011;63906;55.686;37.532;2023-09-08T21:28:13;0.63;;;0.40;;
75311;SDS011;63906;55.686;37.532;2023-09-08T21:33:13;1.27;;;0.50;;
75311;SDS011;63906;55.686;37.532;2023-09-08T21:38:14;0.88;;;0.60;;
75311;SDS011;63906;55.686;37.532;2023-09-08T21:43:16;2.53;;;0.65;;
75311;SDS011;63906;55.686;37.532;2023-09-08T21:48:17;0.60;;;0.50;;
75311;SDS011;63906;55.686;37.532;2023-09-08T21:53:18;0.90;;;0.70;;
75311;SDS011;63906;55.686;37.532;2023-09-08T21:58:18;1.98;;;1.02;;
75311;SDS011;63906;55.686;37.532;2023-09-08T22:03:19;0.98;;;0.65;;
75311;SDS011;63906;55.686;37.532;2023-09-08T22:08:19;0.90;;;0.50;;
75311;SDS011;63906;55.686;37.532;2023-09-08T22:13:20;1.10;;;0.80;;
75311;SDS011;63906;55.686;37.532;2023-09-08T22:18:20;0.67;;;0.60;;
75311;SDS011;63906;55.686;37.532;2023-09-08T22:23:20;1.10;;;0.53;;
75311;SDS011;63906;55.686;37.532;2023-09-08T22:28:21;0.97;;;0.50;;
75311;SDS011;63906;55.686;37.532;2023-09-08T22:33:21;1.25;;;0.63;;
75311;SDS011;63906;55.686;37.532;2023-09-08T22:38:22;0.95;;;0.60;;
75311;SDS011;63906;55.686;37.532;2023-09-08T22:43:22;1.23;;;0.57;;
75311;SDS011;63906;55.686;37.532;2023-09-08T22:48:23;0.73;;;0.50;;
75311;SDS011;63906;55.686;37.532;2023-09-08T22:53:24;0.65;;;0.50;;
75311;SDS011;63906;55.686;37.532;2023-09-08T22:58:24;0.52;;;0.52;;
75311;SDS011;63906;55.686;37.532;2023-09-08T23:03:25;1.55;;;0.85;;
75311;SDS011;63906;55.686;37.532;2023-09-08T23:08:26;1.65;;;0.98;;
75311;SDS011;63906;55.686;37.532;2023-09-08T23:13:26;0.70;;;0.60;;
75311;SDS011;63906;55.686;37.532;2023-09-08T23:18:27;0.87;;;0.63;;
75311;SDS011;63906;55.686;37.532;2023-09-08T23:23:27;1.17;;;0.70;;
75311;SDS011;63906;55.686;37.532;2023-09-08T23:28:28;0.90;;;0.60;;
75311;SDS011;63906;55.686;37.532;2023-09-08T23:33:28;0.93;;;0.75;;
75311;SDS011;63906;55.686;37.532;2023-09-08T23:38:28;0.70;;;0.60;;
75311;SDS011;63906;55.686;37.532;2023-09-08T23:43:29;1.03;;;0.83;;
75311;SDS011;63906;55.686;37.532;2023-09-08T23:48:30;2.05;;;0.70;;
75311;SDS011;63906;55.686;37.532;2023-09-08T23:53:30;0.85;;;0.63;;
75311;SDS011;63906;55.686;37.532;2023-09-08T23:58:31;1.98;;;0.85;;
